Cavan, Ireland
Current Conditions -  °F | °C
As of 5:00 PM on Wednesday 26 Nov 2014 (Local Time) from EISG Reporting Station
Clear Clear  
Wind Chill:   Ceiling: Unl
Heat Index:   Visibility: 6mi
Dew Point:   Wind: 9mph
Humidity: 93%   Direction: 140°SE
Pressure: 29.83"   Gusts: NA
Location:  54°N, 7.37°W
Report Text: EISG 261700Z 14008KT 100V170 CAVOK 05/04 Q1010
Loading
Personal Weather Stations






























Interactive Weather Map New forecast layout! Learn more

10-Day Weather Forecast

Advertisements
Track Severe Weather on mobile